Big Bear Station Historical Data
 
Daily Summary for December 11, 2017 Units:  English    Metric   Both
« Previous Day
Next Day »
Daily Weekly Monthly Yearly Custom
  Current: High: Low: Average:
Temperature: 55.0 °F 55.0 °F 27.3 °F 35 °F
Dew Point: 6.6 °F 15.2 °F 3.2 °F 7.5 °F
Humidity: 14 % 53 % 14 % 34 %
Wind Speed: 4.7 mph 4.7 mph 0.0 mph 0.6 mph
Wind Gust: -999.0 mph -999.0 mph - -
Wind:North - - SSW
Pressure: 30.35 in 30.39 in 30.34 in -
Precipitation: 0.00 in      
Historical Graphs
 
 
Tabular Data for December 11, 2017
Time Temperature Dew Point Pressure Wind Wind Speed Wind Gust Humidity Rainfall Rate (Hourly)
00:09 36.7 °F 8.1 °F 30.36 in South 2.2 mph -999.0 mph 30 % 0 in
00:55 36.7 °F 6.6 °F 30.36 in South 1.7 mph -999.0 mph 28 % 0 in
01:10 36.3 °F 6.3 °F 30.36 in SSE 1.7 mph -999.0 mph 28 % 0 in
01:40 35.8 °F 4.2 °F 30.36 in Calm   -999.0 mph 26 % 0 in
01:55 35.4 °F 4.7 °F 30.36 in Calm   -999.0 mph 27 % 0 in
02:11 34.7 °F 4.9 °F 30.36 in South 2.2 mph -999.0 mph 28 % 0 in
02:26 34.7 °F 4.9 °F 30.36 in Calm   -999.0 mph 28 % 0 in
02:41 33.8 °F 4.1 °F 30.36 in Calm   -999.0 mph 28 % 0 in
02:56 33.1 °F 4.3 °F 30.36 in Calm   -999.0 mph 29 % 0 in
03:12 32.7 °F 3.9 °F 30.36 in Calm   -999.0 mph 29 % 0 in
03:27 32.7 °F 3.9 °F 30.36 in Calm   -999.0 mph 29 % 0 in
03:42 32.0 °F 4.0 °F 30.35 in Calm   -999.0 mph 30 % 0 in
03:57 31.5 °F 3.6 °F 30.35 in Calm   -999.0 mph 30 % 0 in
04:12 30.9 °F 3.8 °F 30.34 in Calm   -999.0 mph 31 % 0 in
04:28 30.0 °F 3.7 °F 30.35 in Calm   -999.0 mph 32 % 0 in
04:43 29.5 °F 3.2 °F 30.35 in Calm   -999.0 mph 32 % 0 in
05:13 28.9 °F 9.2 °F 30.35 in Calm   -999.0 mph 43 % 0 in
05:44 27.9 °F 6.1 °F 30.36 in Calm   -999.0 mph 39 % 0 in
05:59 27.7 °F 7.0 °F 30.36 in Calm   -999.0 mph 41 % 0 in
06:15 27.5 °F 12.2 °F 30.36 in Calm   -999.0 mph 52 % 0 in
06:30 27.5 °F 11.3 °F 30.36 in Calm   -999.0 mph 50 % 0 in
06:45 27.5 °F 7.4 °F 30.36 in Calm   -999.0 mph 42 % 0 in
07:00 27.5 °F 7.9 °F 30.37 in Calm   -999.0 mph 43 % 0 in
07:15 27.3 °F 11.1 °F 30.37 in Calm   -999.0 mph 50 % 0 in
07:31 27.5 °F 12.6 °F 30.37 in Calm   -999.0 mph 53 % 0 in
07:46 27.9 °F 12.5 °F 30.38 in Calm   -999.0 mph 52 % 0 in
08:01 28.6 °F 12.3 °F 30.38 in Calm   -999.0 mph 50 % 0 in
08:32 29.3 °F 12.9 °F 30.38 in Calm   -999.0 mph 50 % 0 in
09:02 32.2 °F 15.2 °F 30.39 in Calm   -999.0 mph 49 % 0 in
09:17 33.6 °F 14.0 °F 30.39 in Calm   -999.0 mph 44 % 0 in
09:32 35.4 °F 8.4 °F 30.39 in Calm   -999.0 mph 32 % 0 in
09:48 39.2 °F 8.8 °F 30.39 in Calm   -999.0 mph 28 % 0 in
10:03 42.3 °F 11.5 °F 30.39 in SSE 1.7 mph -999.0 mph 28 % 0 in
10:19 46.0 °F 8.2 °F 30.38 in NNW 2.2 mph -999.0 mph 21 % 0 in
11:04 50.5 °F 5.9 °F 30.38 in ENE 2.2 mph -999.0 mph 16 % 0 in
11:19 51.6 °F 6.8 °F 30.37 in Calm   -999.0 mph 16 % 0 in
11:35 52.5 °F 6.1 °F 30.36 in ENE 1.7 mph -999.0 mph 15 % 0 in
12:05 54.3 °F 6.1 °F 30.36 in NNW 4.7 mph -999.0 mph 14 % 0 in
12:36 55.0 °F 6.6 °F 30.35 in North 4.7 mph -999.0 mph 14 % 0 in
Big Bear CA Weather
Compliments of Weather Underground - 1.25 mb